createdAt,value
2018-03-29T00:00:42.623Z,47.37
2018-03-29T00:03:10.227Z,46.00
2018-03-29T00:05:38.623Z,47.27
2018-03-29T00:08:07.014Z,44.93
2018-03-29T00:10:35.433Z,45.47
2018-03-29T00:13:02.998Z,47.80
2018-03-29T00:15:30.784Z,48.00
2018-03-29T00:17:58.624Z,46.73
2018-03-29T00:20:26.235Z,47.23
2018-03-29T00:22:54.999Z,44.70
2018-03-29T00:25:22.676Z,48.13
2018-03-29T00:27:50.259Z,48.13
2018-03-29T00:30:18.584Z,47.73
2018-03-29T00:32:46.197Z,48.53
2018-03-29T00:35:14.525Z,47.53
2018-03-29T00:37:42.118Z,46.93
2018-03-29T00:40:10.501Z,47.07
2018-03-29T00:42:38.863Z,47.93
2018-03-29T00:45:06.459Z,47.67
2018-03-29T00:47:34.654Z,47.07
2018-03-29T00:50:02.309Z,47.00
2018-03-29T00:52:29.883Z,48.13
2018-03-29T00:54:57.749Z,48.53
2018-03-29T00:57:25.372Z,47.03
2018-03-29T00:59:52.936Z,48.07
2018-03-29T01:02:20.537Z,50.03
2018-03-29T01:04:48.123Z,48.93
2018-03-29T01:07:15.916Z,48.53
2018-03-29T01:09:43.508Z,48.93
2018-03-29T01:12:11.074Z,47.07
2018-03-29T01:14:38.674Z,46.90
2018-03-29T01:17:07.018Z,46.50
2018-03-29T01:19:34.626Z,45.90
2018-03-29T01:22:03.131Z,47.17
2018-03-29T01:24:30.762Z,47.80
2018-03-29T01:26:59.132Z,45.57
2018-03-29T01:29:27.474Z,45.07
2018-03-29T01:31:55.071Z,46.57
2018-03-29T01:34:23.421Z,46.53
2018-03-29T01:36:51.031Z,46.47
2018-03-29T01:39:18.666Z,46.83
2018-03-29T01:41:47.013Z,47.30
2018-03-29T01:44:14.604Z,47.13
2018-03-29T01:46:42.991Z,48.20
2018-03-29T01:49:11.594Z,47.10
2018-03-29T01:51:39.265Z,46.33
2018-03-29T01:54:06.849Z,44.77
2018-03-29T01:56:34.419Z,45.97
2018-03-29T01:59:02.048Z,45.80
2018-03-29T02:01:29.646Z,46.77
2018-03-29T02:03:57.244Z,43.80
2018-03-29T02:06:24.862Z,44.10
2018-03-29T02:08:52.444Z,44.30
2018-03-29T02:11:20.803Z,45.17
2018-03-29T02:13:48.441Z,44.47
2018-03-29T02:16:16.272Z,44.63
2018-03-29T02:18:43.845Z,46.77
2018-03-29T02:21:11.424Z,44.83
2018-03-29T02:23:39.049Z,45.90
2018-03-29T02:26:06.629Z,46.13
2018-03-29T02:28:34.195Z,46.80
2018-03-29T02:31:02.081Z,47.00
2018-03-29T02:33:29.661Z,46.97
2018-03-29T02:35:57.244Z,45.40
2018-03-29T02:38:24.849Z,47.60
2018-03-29T02:40:52.699Z,49.23
2018-03-29T02:43:20.341Z,48.13
2018-03-29T02:45:48.072Z,48.77
2018-03-29T02:48:16.474Z,48.17
2018-03-29T02:50:44.062Z,46.17
2018-03-29T02:53:11.672Z,48.03
2018-03-29T02:55:39.996Z,48.63
2018-03-29T02:58:07.566Z,47.63
2018-03-29T03:00:36.664Z,49.60
2018-03-29T03:03:04.272Z,50.63
2018-03-29T03:05:32.611Z,50.00
2018-03-29T03:08:00.262Z,49.73
2018-03-29T03:10:27.888Z,49.90
2018-03-29T03:12:56.048Z,50.40
2018-03-29T03:15:24.553Z,52.57
2018-03-29T03:17:52.202Z,52.80
2018-03-29T03:20:19.785Z,51.80
2018-03-29T03:22:47.405Z,53.30
2018-03-29T03:25:15.754Z,52.57
2018-03-29T03:27:43.405Z,57.10
2018-03-29T03:30:11.023Z,56.57
2018-03-29T03:32:38.603Z,55.93
2018-03-29T03:35:06.274Z,52.17
2018-03-29T03:37:34.319Z,55.57
2018-03-29T03:40:01.945Z,56.83
2018-03-29T03:42:30.295Z,56.13
2018-03-29T03:44:57.861Z,56.63
2018-03-29T03:47:25.518Z,57.03
2018-03-29T03:49:53.117Z,55.07
2018-03-29T03:52:21.282Z,56.93
2018-03-29T03:54:49.678Z,51.40
2018-03-29T03:57:17.368Z,57.23
2018-03-29T03:59:44.963Z,58.23
2018-03-29T04:02:12.535Z,58.57
2018-03-29T04:04:40.900Z,60.70
2018-03-29T04:07:08.494Z,62.10
2018-03-29T04:09:36.679Z,62.47
2018-03-29T04:12:04.304Z,62.47
2018-03-29T04:14:32.647Z,59.53
2018-03-29T04:17:00.281Z,58.10
2018-03-29T04:19:27.870Z,61.87
2018-03-29T04:21:55.534Z,63.13
2018-03-29T04:24:23.132Z,61.33
2018-03-29T04:26:52.083Z,60.47
2018-03-29T04:29:19.721Z,60.43
2018-03-29T04:31:47.896Z,59.87
2018-03-29T04:34:15.511Z,58.90
2018-03-29T04:36:43.912Z,63.20
2018-03-29T04:39:11.501Z,63.57
2018-03-29T04:41:39.079Z,62.00
2018-03-29T04:44:06.914Z,62.77
2018-03-29T04:46:34.507Z,63.73
2018-03-29T04:49:02.124Z,68.10
2018-03-29T04:51:29.729Z,67.77
2018-03-29T04:53:57.676Z,72.63
2018-03-29T04:56:25.326Z,73.43
2018-03-29T04:58:53.323Z,95.43
2018-03-29T05:01:20.951Z,99.47
2018-03-29T05:03:48.821Z,68.57
2018-03-29T05:06:17.320Z,69.53
2018-03-29T05:08:44.947Z,78.33
2018-03-29T05:11:12.555Z,71.27
2018-03-29T05:13:40.126Z,76.80
2018-03-29T05:16:08.620Z,76.10
2018-03-29T05:18:36.984Z,81.43
2018-03-29T05:21:04.709Z,65.60
2018-03-29T05:23:32.329Z,58.13
2018-03-29T05:26:05.737Z,73.43
2018-03-29T05:28:33.330Z,86.47
2018-03-29T05:31:01.070Z,61.03
2018-03-29T05:33:29.202Z,75.40
2018-03-29T05:35:56.814Z,84.60
2018-03-29T05:38:24.452Z,82.73
2018-03-29T05:40:52.039Z,81.10
2018-03-29T05:43:19.610Z,91.07
2018-03-29T05:45:47.913Z,83.03
2018-03-29T05:48:15.485Z,76.33
2018-03-29T05:50:43.882Z,77.73
2018-03-29T05:53:11.440Z,79.50
2018-03-29T05:55:39.848Z,83.23
2018-03-29T05:58:07.458Z,72.53
2018-03-29T06:00:35.818Z,79.73
2018-03-29T06:03:03.485Z,91.83
2018-03-29T06:05:31.844Z,81.47
2018-03-29T06:08:12.175Z,96.83
2018-03-29T06:10:58.162Z,76.83
2018-03-29T06:13:25.756Z,68.27
2018-03-29T06:15:59.086Z,69.60
2018-03-29T06:21:11.036Z,68.53
2018-03-29T06:23:43.990Z,66.57
2018-03-29T06:26:12.362Z,69.00
2018-03-29T06:28:40.746Z,66.50
2018-03-29T06:31:09.748Z,69.37
2018-03-29T06:33:37.361Z,67.20
2018-03-29T06:36:04.986Z,66.33
2018-03-29T06:38:32.558Z,64.83
2018-03-29T06:41:00.636Z,63.83
2018-03-29T06:43:28.232Z,59.70
2018-03-29T06:45:57.080Z,59.20
2018-03-29T06:48:24.652Z,60.00
2018-03-29T06:50:52.292Z,59.13
2018-03-29T06:53:19.850Z,59.17
2018-03-29T06:55:47.485Z,57.87
2018-03-29T06:58:15.064Z,57.47
2018-03-29T07:00:42.767Z,61.30
2018-03-29T07:03:10.366Z,62.10
2018-03-29T07:05:37.996Z,69.87
2018-03-29T07:08:06.329Z,74.53
2018-03-29T07:10:33.912Z,78.33
2018-03-29T07:13:01.501Z,93.03
2018-03-29T07:15:29.971Z,94.00
2018-03-29T07:17:57.532Z,81.17
2018-03-29T07:20:25.192Z,83.10
2018-03-29T07:22:53.329Z,73.60
2018-03-29T07:25:20.977Z,70.50
2018-03-29T07:27:48.603Z,71.07
2018-03-29T07:30:16.974Z,68.30
2018-03-29T07:32:45.313Z,76.67
2018-03-29T07:35:12.904Z,70.90
2018-03-29T07:37:41.330Z,74.83
2018-03-29T07:40:08.907Z,70.37
2018-03-29T07:42:36.506Z,71.47
2018-03-29T07:45:04.125Z,69.63
2018-03-29T07:47:31.762Z,65.30
2018-03-29T07:49:59.542Z,66.83
2018-03-29T07:52:27.160Z,60.77
2018-03-29T07:54:55.599Z,56.90
2018-03-29T07:57:23.167Z,57.33
2018-03-29T07:59:50.756Z,52.90
2018-03-29T08:02:19.090Z,44.13
2018-03-29T08:04:46.698Z,40.37
2018-03-29T08:07:15.339Z,39.97
2018-03-29T08:09:43.087Z,38.70
2018-03-29T08:12:11.582Z,43.90
2018-03-29T08:14:39.160Z,45.07
2018-03-29T08:17:06.752Z,42.73
2018-03-29T08:19:35.178Z,42.90
2018-03-29T08:22:02.774Z,42.33
2018-03-29T08:24:31.777Z,42.53
2018-03-29T08:26:59.259Z,43.27
2018-03-29T08:29:26.934Z,42.17
2018-03-29T08:31:54.532Z,45.20
2018-03-29T08:34:22.097Z,42.93
2018-03-29T08:36:49.715Z,44.57
2018-03-29T08:39:17.281Z,42.97
2018-03-29T08:41:44.942Z,44.30
2018-03-29T08:44:12.486Z,47.10
2018-03-29T08:46:40.163Z,48.07
2018-03-29T08:49:07.762Z,47.43
2018-03-29T08:51:36.082Z,49.03
2018-03-29T08:54:03.645Z,47.60
2018-03-29T08:56:31.267Z,45.37
2018-03-29T08:58:59.584Z,44.17
2018-03-29T09:01:27.176Z,44.10
2018-03-29T09:03:54.737Z,45.20
2018-03-29T09:06:22.321Z,44.77
2018-03-29T09:08:50.685Z,46.00
2018-03-29T09:11:18.275Z,45.43
2018-03-29T09:13:45.855Z,43.00
2018-03-29T09:16:13.444Z,44.30
2018-03-29T09:18:41.176Z,45.47
2018-03-29T09:21:08.727Z,44.93
2018-03-29T09:23:36.289Z,45.87
2018-03-29T09:26:04.519Z,42.53
2018-03-29T09:28:32.104Z,39.87
2018-03-29T09:30:59.694Z,35.63
2018-03-29T09:33:27.283Z,36.37
2018-03-29T09:35:54.853Z,31.93
2018-03-29T09:38:22.459Z,32.77
2018-03-29T09:40:50.078Z,31.87
2018-03-29T09:43:17.640Z,32.13
2018-03-29T09:45:45.985Z,26.90
2018-03-29T09:48:13.542Z,30.97
2018-03-29T09:50:41.209Z,27.73
2018-03-29T09:53:08.755Z,24.30
2018-03-29T09:55:36.574Z,20.33
2018-03-29T09:58:04.900Z,21.33
2018-03-29T10:00:35.494Z,20.77
2018-03-29T10:03:08.761Z,21.93
2018-03-29T10:05:37.923Z,24.67
2018-03-29T10:08:05.507Z,25.40
2018-03-29T10:10:33.859Z,24.20
2018-03-29T10:13:01.458Z,23.80
2018-03-29T10:15:29.878Z,25.10
2018-03-29T10:17:57.450Z,25.83
2018-03-29T10:20:25.303Z,25.93
2018-03-29T10:22:52.963Z,26.77
2018-03-29T10:25:20.537Z,27.70
2018-03-29T10:27:48.193Z,27.77
2018-03-29T10:30:15.769Z,30.73
2018-03-29T10:32:43.334Z,28.00
2018-03-29T10:35:11.045Z,27.90
2018-03-29T10:37:38.599Z,27.57
2018-03-29T10:40:06.945Z,26.40
2018-03-29T10:42:36.036Z,25.73
2018-03-29T10:45:03.588Z,27.37
2018-03-29T10:47:31.874Z,26.03
2018-03-29T10:49:59.431Z,27.57
2018-03-29T10:52:27.092Z,25.33
2018-03-29T10:54:55.132Z,24.77
2018-03-29T10:57:22.736Z,25.50
2018-03-29T10:59:51.137Z,24.23
2018-03-29T11:02:18.701Z,23.67
2018-03-29T11:04:46.287Z,23.63
2018-03-29T11:07:13.883Z,23.13
2018-03-29T11:09:41.448Z,21.90
2018-03-29T11:12:09.855Z,18.43
2018-03-29T11:14:37.465Z,20.17
2018-03-29T11:17:05.026Z,18.90
2018-03-29T11:19:32.782Z,20.20
2018-03-29T11:22:00.428Z,20.17
2018-03-29T11:24:28.506Z,19.30
2018-03-29T11:26:56.073Z,20.03
2018-03-29T11:29:25.223Z,19.60
2018-03-29T11:31:52.789Z,20.13
2018-03-29T11:34:20.577Z,18.40
2018-03-29T11:36:48.180Z,13.37
2018-03-29T11:39:16.501Z,14.80
2018-03-29T11:41:44.281Z,16.23
2018-03-29T11:44:13.709Z,17.63
2018-03-29T11:46:42.252Z,18.07
2018-03-29T11:49:09.887Z,19.40
2018-03-29T11:51:37.447Z,19.10
2018-03-29T11:54:05.114Z,15.53
2018-03-29T11:56:32.790Z,16.63
2018-03-29T11:59:00.390Z,19.77
2018-03-29T12:01:27.965Z,19.47
2018-03-29T12:03:56.320Z,19.20
2018-03-29T12:06:24.154Z,19.00
2018-03-29T12:08:51.784Z,20.77
2018-03-29T12:11:20.156Z,21.47
2018-03-29T12:13:48.530Z,22.90
2018-03-29T12:16:16.888Z,21.67
2018-03-29T12:18:44.462Z,23.90
2018-03-29T12:21:12.841Z,20.73
2018-03-29T12:23:41.298Z,18.83
2018-03-29T12:26:09.790Z,18.00
2018-03-29T12:28:38.898Z,17.87
2018-03-29T12:31:07.232Z,17.53
2018-03-29T12:33:35.010Z,17.83
2018-03-29T12:36:02.747Z,16.77
2018-03-29T12:38:30.919Z,17.37
2018-03-29T12:40:58.534Z,17.97
2018-03-29T12:43:26.142Z,17.70
2018-03-29T12:45:53.725Z,18.27
2018-03-29T12:48:21.305Z,18.33
2018-03-29T12:50:49.006Z,19.17
2018-03-29T12:53:16.626Z,19.03
2018-03-29T12:55:44.233Z,19.13
2018-03-29T12:58:11.808Z,19.43
2018-03-29T13:00:39.398Z,20.90
2018-03-29T13:03:07.028Z,20.90
2018-03-29T13:05:34.623Z,20.60
2018-03-29T13:08:02.196Z,21.00
2018-03-29T13:10:30.881Z,21.67
2018-03-29T13:12:59.239Z,22.43
2018-03-29T13:15:26.927Z,22.93
2018-03-29T13:17:54.501Z,23.97
2018-03-29T13:20:22.061Z,24.90
2018-03-29T13:22:49.689Z,24.87
2018-03-29T13:25:17.315Z,25.97
2018-03-29T13:27:44.884Z,22.30
2018-03-29T13:30:12.604Z,22.13
2018-03-29T13:32:40.157Z,23.50
2018-03-29T13:35:07.708Z,23.17
2018-03-29T13:37:36.051Z,22.50
2018-03-29T13:40:03.654Z,22.37
2018-03-29T13:42:31.233Z,24.10
2018-03-29T13:44:58.820Z,23.67
2018-03-29T13:47:26.417Z,22.10
2018-03-29T13:49:54.758Z,24.97
2018-03-29T13:52:22.380Z,25.07
2018-03-29T13:54:50.274Z,25.10
2018-03-29T13:57:17.937Z,25.47
2018-03-29T13:59:45.511Z,26.10
2018-03-29T14:02:13.070Z,26.23
2018-03-29T14:04:40.647Z,27.23
2018-03-29T14:07:08.189Z,26.90
2018-03-29T14:09:36.109Z,26.07
2018-03-29T14:12:03.685Z,28.07
2018-03-29T14:14:31.254Z,26.87
2018-03-29T14:16:59.010Z,27.10
2018-03-29T14:19:26.633Z,28.80
2018-03-29T14:21:55.029Z,29.87
2018-03-29T14:24:22.684Z,30.67
2018-03-29T14:26:50.293Z,31.07
2018-03-29T14:29:17.852Z,33.03
2018-03-29T14:31:45.411Z,31.97
2018-03-29T14:34:13.049Z,30.93
2018-03-29T14:36:40.616Z,33.90
2018-03-29T14:39:08.175Z,34.43
2018-03-29T14:41:35.788Z,34.10
2018-03-29T14:44:04.177Z,35.67
2018-03-29T14:46:31.740Z,37.17
2018-03-29T14:48:59.629Z,38.83
2018-03-29T14:51:27.993Z,38.80
2018-03-29T14:53:55.580Z,38.83
2018-03-29T14:56:23.905Z,33.30
2018-03-29T14:58:51.489Z,33.80
2018-03-29T15:01:19.078Z,37.27
2018-03-29T15:03:47.486Z,39.47
2018-03-29T15:06:15.065Z,42.93
2018-03-29T15:08:42.610Z,35.93
2018-03-29T15:11:10.209Z,36.20
2018-03-29T15:13:37.765Z,37.07
2018-03-29T15:16:05.328Z,33.93
2018-03-29T15:18:32.899Z,33.37
2018-03-29T15:21:00.461Z,33.00
2018-03-29T15:23:28.852Z,33.07
2018-03-29T15:25:57.185Z,33.33
2018-03-29T15:28:24.743Z,31.53
2018-03-29T15:30:52.331Z,34.20
2018-03-29T15:33:19.894Z,35.67
2018-03-29T15:35:47.508Z,35.80
2018-03-29T15:38:15.068Z,35.23
2018-03-29T15:40:42.631Z,33.30
2018-03-29T15:43:10.210Z,32.53
2018-03-29T15:45:37.746Z,32.13
2018-03-29T15:48:05.296Z,34.07
2018-03-29T15:50:32.862Z,33.93
2018-03-29T15:53:00.509Z,34.57
2018-03-29T15:55:28.055Z,35.63
2018-03-29T15:57:56.367Z,35.33
2018-03-29T16:00:23.950Z,37.33
2018-03-29T16:02:51.523Z,40.70
2018-03-29T16:05:19.116Z,38.93
2018-03-29T16:07:47.449Z,39.53
2018-03-29T16:10:15.004Z,45.70
2018-03-29T16:12:42.623Z,47.40
2018-03-29T16:15:10.940Z,47.17
2018-03-29T16:17:38.503Z,46.93
2018-03-29T16:20:06.057Z,51.67
2018-03-29T16:22:33.645Z,48.87
2018-03-29T16:25:01.201Z,49.80
2018-03-29T16:27:28.781Z,48.37
2018-03-29T16:29:56.362Z,45.43
2018-03-29T16:32:23.903Z,44.53
2018-03-29T16:34:52.305Z,48.70
2018-03-29T16:37:19.847Z,48.07
2018-03-29T16:39:47.447Z,44.83
2018-03-29T16:42:15.875Z,46.53
2018-03-29T16:44:43.456Z,49.87
2018-03-29T16:47:11.026Z,53.03
2018-03-29T16:49:39.220Z,56.37
2018-03-29T16:52:06.833Z,57.13
2018-03-29T16:54:34.420Z,54.87
2018-03-29T16:57:02.040Z,57.27
2018-03-29T16:59:29.589Z,63.80
2018-03-29T17:01:57.146Z,62.53
2018-03-29T17:04:24.740Z,56.60
2018-03-29T17:06:52.294Z,55.53
2018-03-29T17:09:20.670Z,50.13
2018-03-29T17:11:48.217Z,56.90
2018-03-29T17:14:15.781Z,57.23
2018-03-29T17:16:43.351Z,60.97
2018-03-29T17:19:11.659Z,59.50
2018-03-29T17:21:39.297Z,58.43
2018-03-29T17:24:06.849Z,62.27
2018-03-29T17:26:34.445Z,58.77
2018-03-29T17:29:02.065Z,72.10
2018-03-29T17:31:29.592Z,74.73
2018-03-29T17:33:57.185Z,89.60
2018-03-29T17:36:24.780Z,79.20
2018-03-29T17:38:52.339Z,79.77
2018-03-29T17:41:19.976Z,93.03
2018-03-29T17:43:47.564Z,92.03
2018-03-29T17:46:15.121Z,89.20
2018-03-29T17:48:42.683Z,84.43
2018-03-29T17:51:10.277Z,71.63
2018-03-29T17:53:37.856Z,97.93
2018-03-29T17:56:05.440Z,81.63
2018-03-29T17:58:33.776Z,79.93
2018-03-29T18:01:01.333Z,94.60
2018-03-29T18:03:28.981Z,120.53
2018-03-29T18:05:56.570Z,122.03
2018-03-29T18:08:24.122Z,151.33
2018-03-29T18:10:51.717Z,137.17
2018-03-29T18:13:20.040Z,105.17
2018-03-29T18:15:47.582Z,136.23
2018-03-29T18:18:15.195Z,152.50
2018-03-29T18:20:42.755Z,104.50
2018-03-29T18:23:10.309Z,90.13
2018-03-29T18:25:37.927Z,89.17
2018-03-29T18:28:05.516Z,91.00
2018-03-29T18:30:33.149Z,100.00
2018-03-29T18:33:00.726Z,97.87
2018-03-29T18:35:28.309Z,104.37
2018-03-29T18:37:55.903Z,117.33
2018-03-29T18:40:23.555Z,135.80
2018-03-29T18:42:51.149Z,134.47
2018-03-29T18:45:18.951Z,111.37
2018-03-29T18:47:46.536Z,98.23
2018-03-29T18:50:14.122Z,85.40
2018-03-29T18:52:42.474Z,79.20
2018-03-29T18:55:10.028Z,72.67
2018-03-29T18:57:37.629Z,82.87
2018-03-29T19:00:05.207Z,64.27
2018-03-29T19:02:32.755Z,56.13
2018-03-29T19:05:00.337Z,60.80
2018-03-29T19:07:27.915Z,71.23
2018-03-29T19:09:55.476Z,68.17
2018-03-29T19:12:23.079Z,106.77
2018-03-29T19:14:51.409Z,91.20
2018-03-29T19:17:19.058Z,90.83
2018-03-29T19:19:46.627Z,79.63
2018-03-29T19:22:14.206Z,77.17
2018-03-29T19:24:41.844Z,81.47
2018-03-29T19:27:09.420Z,86.50
2018-03-29T19:29:37.001Z,76.33
2018-03-29T19:32:05.378Z,73.73
2018-03-29T19:34:32.930Z,63.00
2018-03-29T19:37:00.734Z,57.60
2018-03-29T19:39:28.428Z,65.57
2018-03-29T19:41:55.979Z,59.00
2018-03-29T19:44:23.580Z,63.90
2018-03-29T19:46:51.210Z,61.77
2018-03-29T19:49:19.165Z,58.70
2018-03-29T19:51:46.754Z,59.73
2018-03-29T19:54:14.386Z,60.33
2018-03-29T19:56:42.774Z,58.20
2018-03-29T19:59:10.360Z,57.00
2018-03-29T20:01:38.000Z,60.90
2018-03-29T20:04:05.570Z,64.20
2018-03-29T20:06:33.604Z,55.73
2018-03-29T20:09:01.946Z,64.77
2018-03-29T20:11:31.003Z,61.73
2018-03-29T20:13:59.359Z,66.23
2018-03-29T20:16:29.214Z,67.80
2018-03-29T20:18:58.335Z,84.17
2018-03-29T20:21:26.403Z,95.20
2018-03-29T20:23:54.000Z,89.93
2018-03-29T20:26:21.627Z,99.97
2018-03-29T20:28:49.250Z,89.67
2018-03-29T20:31:16.768Z,96.00
2018-03-29T20:33:44.409Z,106.13
2018-03-29T20:36:11.984Z,110.20
2018-03-29T20:38:39.589Z,111.43
2018-03-29T20:41:07.204Z,114.07
2018-03-29T20:43:35.590Z,120.43
2018-03-29T20:46:03.970Z,82.50
2018-03-29T20:48:31.753Z,95.93
2018-03-29T20:50:59.335Z,116.70
2018-03-29T20:53:26.949Z,117.70
2018-03-29T20:55:55.390Z,106.00
2018-03-29T20:58:23.703Z,105.90
2018-03-29T21:00:52.077Z,93.57
2018-03-29T21:03:20.482Z,109.07
2018-03-29T21:05:48.145Z,113.60
2018-03-29T21:08:15.718Z,108.00
2018-03-29T21:10:43.273Z,95.73
2018-03-29T21:13:10.870Z,92.50
2018-03-29T21:15:38.429Z,88.57
2018-03-29T21:18:05.979Z,79.23
2018-03-29T21:20:33.576Z,60.90
2018-03-29T21:23:01.917Z,61.37
2018-03-29T21:25:29.556Z,67.27
2018-03-29T21:27:57.146Z,56.20
2018-03-29T21:30:24.705Z,49.77
2018-03-29T21:32:52.315Z,46.13
2018-03-29T21:35:19.908Z,44.23
2018-03-29T21:37:47.469Z,47.90
2018-03-29T21:40:15.061Z,42.50
2018-03-29T21:42:42.615Z,54.43
2018-03-29T21:45:10.234Z,53.70
2018-03-29T21:47:37.793Z,48.47
2018-03-29T21:50:05.366Z,39.10
2018-03-29T21:52:32.951Z,41.07
2018-03-29T21:55:00.525Z,39.37
2018-03-29T21:57:28.072Z,44.83
2018-03-29T21:59:55.659Z,67.50
2018-03-29T22:02:23.245Z,95.83
2018-03-29T22:04:50.813Z,96.33
2018-03-29T22:07:18.373Z,87.53
2018-03-29T22:09:45.951Z,59.33
2018-03-29T22:12:13.510Z,63.40
2018-03-29T22:14:41.079Z,79.30
2018-03-29T22:17:08.634Z,87.77
2018-03-29T22:19:36.247Z,79.50
2018-03-29T22:22:04.635Z,80.20
2018-03-29T22:24:32.987Z,72.37
2018-03-29T22:27:00.549Z,70.43
2018-03-29T22:29:28.144Z,67.73
2018-03-29T22:31:55.711Z,66.20
2018-03-29T22:34:23.335Z,70.17
2018-03-29T22:36:51.264Z,68.50
2018-03-29T22:39:18.827Z,73.03
2018-03-29T22:41:46.376Z,62.43
2018-03-29T22:44:13.959Z,63.13
2018-03-29T22:46:41.521Z,75.27
2018-03-29T22:49:09.123Z,79.57
2018-03-29T22:51:37.465Z,63.23
2018-03-29T22:54:05.029Z,67.10
2018-03-29T22:56:32.624Z,73.03
2018-03-29T22:59:00.231Z,83.90
2018-03-29T23:01:27.878Z,74.90
2018-03-29T23:03:56.212Z,75.77
2018-03-29T23:06:23.845Z,78.67
2018-03-29T23:08:52.024Z,94.50
2018-03-29T23:11:19.566Z,96.40
2018-03-29T23:13:47.140Z,97.03
2018-03-29T23:16:14.715Z,88.97
2018-03-29T23:18:42.311Z,78.63
2018-03-29T23:21:09.878Z,87.90
2018-03-29T23:23:37.837Z,98.77
2018-03-29T23:26:05.397Z,97.87
2018-03-29T23:28:32.949Z,101.10
2018-03-29T23:31:00.748Z,105.80
2018-03-29T23:33:28.330Z,109.70
2018-03-29T23:35:55.922Z,118.33
2018-03-29T23:38:23.537Z,114.37
2018-03-29T23:40:51.170Z,115.93
2018-03-29T23:43:18.728Z,112.57
2018-03-29T23:45:46.334Z,114.47
2018-03-29T23:48:13.907Z,112.73
2018-03-29T23:50:41.460Z,107.73
2018-03-29T23:53:09.093Z,105.40
2018-03-29T23:55:36.652Z,105.67
2018-03-29T23:58:19.022Z,104.13
